Share

Port Hope, MI (48468)

Scotthaven (KMIPORTH9) Elev 565 ft | 43.95 °N, 82.72 °W | Change Station

Current weather conditions updated 4 seconds ago

Clear
Clear
32.4 °F
Feels Like 32 °F
N
1.6
Wind Variable Wind from SW
Gusts 2.2 mph
Sunrise 6:39 AM
Sunset 8:21 PM
Moon Waning Gibbous

Today is forecast to be Much Warmer than yesterday. Chance of late night showers tonight.

Pressure 30.33 in
Visibility 10.0 miles
Clouds Clear
Windchill 32 °F
Dew Point 30 °F
Humidity 90%
Rainfall 0.00 in
Snow Depth Not available.
UV 0 out of 16
Pollen 10.60 out of 12
Ozone Good
PM2.5 Moderate
Flu Activity Sporadic
METAR KBAX 200857Z AUTO 00000KT 10SM CLR 00/M02 A3033 RMK AO2 T10011021

More Conditions Fewer Conditions

Pressure 30.33 in
Visibility 10.0 miles
Clouds Clear
Windchill 32 °F
Dew Point 30 °F
Humidity 90%
Rainfall 0.00 in
Snow Depth Not available.
UV 0 out of 16
Pollen 10.60 out of 12
Ozone Good
PM2.5 Moderate
Flu Activity Sporadic
METAR KBAX 200857Z AUTO 00000KT 10SM CLR 00/M02 A3033 RMK AO2 T10011021

More Conditions Fewer Conditions

10-Day Weather Forecast

Almanac

Astronomy

Apr. 20, 2014 Rise Set
Actual Time 6:39 AM EDT 8:21 PM EDT
Civil Twilight 6:09 AM EDT 8:51 PM EDT
Nautical Twilight 5:32 AM EDT 9:28 PM EDT
Astronomical Twilight 4:52 AM EDT 10:08 PM EDT
Moon 1:03 AM EDT 10:54 AM EDT
Length of Visible Light 14h 42m
Length of Day
13h 41m
Tomorrow will be 2m 50s longer.
Waning Gibbous, 72% of the Moon is Illuminated
Today
Waning Gibbous
Apr 22
Last Quarter
Apr 29
New
May 6
First Quarter
May 14
Full

Today's Extremes

State Highs State Lows

Community

  • Sunny day at the coast-Cape Arago Lighthouse
    Sunny day at the coast-Cape Arago Lighthouse
  • Cherry Blossoms
    Cherry Blossoms
  • White-Crowned Sparrow
    White-Crowned Sparrow
  • New Day
    New Day
  • Happy Easter!
    Happy Easter!

WunderPhotos

Upload Photos

1,703,122 photos uploaded!

WunderBlogs® & News

Nearby

Air Quality

  Air Quality AQ Index Pollutant
Yesterday Good
OZONE
Yesterday Good
PM2.5
Current Moderate
PM2.5
Current Good
OZONE
Sunday Moderate
PM2.5
Monday Moderate
PM2.5

Snow Depth

Station Depth Elevation
No new snow has been reported.

Coastal Water Temperatures

Place Temperature
Harbor Beach, MI 44.1 °F

Earthquake Activity

City Distance Mag. Time & Date
No recent earthquake activity has been reported nearby.
Minimum magnitude displayed is 2.5.

Nearby Weather Stations

Station Location Temp. Windchill Dew Point Humidity Wind Precip. Elev Updated Type
Scotthaven, Port Hope, MI 32.4 °F 32 °F 30 °F 90% SW  at  1.6 mph 0.00 in / hr 565 ft 5:08 AM EDT Rapid Fire
MesoWest Pigeon , Pigeon, MI 36 °F 30 °F 30 °F 80% SSE  at  7 mph 0.00 in / hr 615 ft 4:00 AM EDT MADIS
MARITIME , Black River, MI 34 °F 25 °F 30 °F 85% SSE  at  14 mph 0.00 in / hr 577 ft 4:00 AM EDT MADIS

Show More Stations Show Fewer Stations

What do you think?

We're not finished. Please let us know what you like, what you don't like, and what you are still missing.